createdAt,value
2018-04-14T00:01:33.753Z,52.90
2018-04-14T00:04:00.201Z,53.10
2018-04-14T00:06:26.713Z,53.47
2018-04-14T00:08:53.161Z,55.50
2018-04-14T00:11:19.593Z,54.93
2018-04-14T00:13:46.053Z,54.30
2018-04-14T00:16:12.510Z,52.50
2018-04-14T00:18:39.988Z,54.63
2018-04-14T00:21:07.274Z,54.47
2018-04-14T00:23:33.713Z,56.60
2018-04-14T00:26:00.147Z,57.43
2018-04-14T00:28:26.627Z,55.40
2018-04-14T00:30:53.081Z,58.77
2018-04-14T00:33:19.555Z,50.43
2018-04-14T00:35:45.976Z,56.00
2018-04-14T00:38:12.406Z,54.70
2018-04-14T00:40:38.842Z,56.03
2018-04-14T00:43:05.280Z,59.60
2018-04-14T00:45:31.763Z,50.80
2018-04-14T00:47:58.961Z,55.27
2018-04-14T00:50:25.409Z,54.30
2018-04-14T00:52:51.844Z,64.13
2018-04-14T00:55:19.646Z,61.07
2018-04-14T00:57:46.126Z,58.30
2018-04-14T01:00:12.772Z,52.07
2018-04-14T01:02:39.862Z,53.43
2018-04-14T01:05:06.448Z,56.90
2018-04-14T01:07:32.885Z,61.20
2018-04-14T01:09:59.337Z,49.13
2018-04-14T01:12:25.787Z,49.87
2018-04-14T01:14:52.219Z,65.73
2018-04-14T01:17:18.642Z,57.73
2018-04-14T01:19:45.123Z,50.67
2018-04-14T01:22:12.364Z,50.17
2018-04-14T01:24:39.608Z,60.83
2018-04-14T01:27:06.054Z,46.10
2018-04-14T01:29:33.260Z,41.53
2018-04-14T01:31:59.727Z,45.63
2018-04-14T01:34:27.762Z,48.00
2018-04-14T01:36:54.255Z,48.07
2018-04-14T01:39:21.447Z,51.23
2018-04-14T01:41:48.174Z,48.40
2018-04-14T01:44:14.684Z,46.30
2018-04-14T01:46:41.885Z,41.80
2018-04-14T01:49:08.370Z,54.50
2018-04-14T01:51:35.554Z,46.40
2018-04-14T01:54:03.130Z,48.13
2018-04-14T01:56:29.599Z,45.87
2018-04-14T01:58:56.776Z,53.80
2018-04-14T02:01:23.238Z,46.80
2018-04-14T02:03:49.715Z,47.07
2018-04-14T02:06:16.715Z,51.03
2018-04-14T02:08:43.168Z,48.20
2018-04-14T02:11:09.659Z,48.37
2018-04-14T02:13:36.846Z,50.50
2018-04-14T02:16:03.291Z,47.07
2018-04-14T02:18:29.715Z,45.63
2018-04-14T02:20:56.205Z,52.73
2018-04-14T02:23:22.695Z,50.03
2018-04-14T02:25:49.150Z,44.03
2018-04-14T02:28:15.597Z,42.47
2018-04-14T02:30:42.053Z,43.20
2018-04-14T02:33:08.485Z,65.47
2018-04-14T02:35:34.994Z,48.27
2018-04-14T02:38:02.247Z,44.83
2018-04-14T02:40:28.707Z,41.33
2018-04-14T02:42:55.181Z,40.47
2018-04-14T02:45:21.636Z,44.53
2018-04-14T02:47:49.601Z,42.27
2018-04-14T02:50:16.829Z,39.37
2018-04-14T02:52:43.274Z,43.13
2018-04-14T02:55:10.290Z,47.83
2018-04-14T02:57:36.754Z,51.07
2018-04-14T03:00:04.374Z,47.00
2018-04-14T03:02:30.817Z,51.17
2018-04-14T03:04:57.466Z,53.67
2018-04-14T03:07:23.995Z,45.20
2018-04-14T03:09:50.450Z,51.50
2018-04-14T03:12:16.932Z,44.90
2018-04-14T03:14:43.424Z,47.00
2018-04-14T03:17:10.109Z,46.07
2018-04-14T03:19:37.288Z,47.77
2018-04-14T03:22:03.730Z,47.77
2018-04-14T03:24:30.187Z,48.80
2018-04-14T03:26:56.795Z,46.77
2018-04-14T03:29:23.255Z,37.90
2018-04-14T03:31:49.705Z,44.97
2018-04-14T03:34:16.192Z,42.50
2018-04-14T03:36:42.627Z,44.07
2018-04-14T03:39:09.163Z,42.90
2018-04-14T03:41:35.619Z,38.60
2018-04-14T03:44:02.078Z,36.10
2018-04-14T03:46:28.518Z,44.33
2018-04-14T03:48:54.962Z,43.30
2018-04-14T03:51:22.908Z,49.07
2018-04-14T03:53:49.371Z,44.30
2018-04-14T03:56:16.501Z,44.90
2018-04-14T03:58:42.997Z,41.83
2018-04-14T04:01:09.445Z,45.90
2018-04-14T04:03:35.901Z,40.87
2018-04-14T04:06:02.394Z,42.30
2018-04-14T04:08:28.814Z,39.93
2018-04-14T04:10:55.271Z,49.33
2018-04-14T04:13:21.768Z,42.47
2018-04-14T04:15:48.949Z,42.30
2018-04-14T04:18:15.446Z,40.20
2018-04-14T04:20:56.797Z,36.47
2018-04-14T04:23:35.454Z,39.27
2018-04-14T04:26:02.663Z,40.47
2018-04-14T04:28:29.123Z,41.07
2018-04-14T04:30:55.715Z,35.77
2018-04-14T04:33:22.150Z,40.67
2018-04-14T04:35:48.641Z,34.93
2018-04-14T04:38:15.065Z,34.90
2018-04-14T04:40:42.277Z,43.90
2018-04-14T04:43:08.741Z,43.23
2018-04-14T04:45:35.179Z,37.80
2018-04-14T04:48:01.613Z,36.73
2018-04-14T04:50:28.111Z,38.47
2018-04-14T04:52:54.555Z,43.33
2018-04-14T04:55:21.044Z,39.90
2018-04-14T04:57:47.502Z,46.07
2018-04-14T05:00:13.974Z,36.07
2018-04-14T05:02:40.460Z,40.73
2018-04-14T05:05:06.918Z,45.10
2018-04-14T05:07:33.377Z,39.90
2018-04-14T05:10:00.563Z,37.60
2018-04-14T05:12:26.998Z,36.40
2018-04-14T05:14:53.446Z,37.53
2018-04-14T05:17:19.888Z,40.00
2018-04-14T05:19:47.227Z,42.87
2018-04-14T05:22:14.978Z,41.77
2018-04-14T05:24:41.439Z,45.37
2018-04-14T05:27:07.873Z,43.97
2018-04-14T05:29:34.308Z,36.47
2018-04-14T05:32:07.688Z,36.47
2018-04-14T05:34:34.117Z,35.47
2018-04-14T05:37:01.514Z,37.20
2018-04-14T05:39:29.429Z,39.03
2018-04-14T05:41:55.871Z,42.03
2018-04-14T05:44:22.300Z,41.93
2018-04-14T05:46:48.746Z,44.07
2018-04-14T05:49:16.139Z,44.17
2018-04-14T05:51:42.622Z,44.40
2018-04-14T05:54:09.068Z,45.50
2018-04-14T05:56:35.503Z,46.40
2018-04-14T05:59:01.934Z,40.07
2018-04-14T06:01:28.355Z,45.97
2018-04-14T06:03:54.790Z,44.10
2018-04-14T06:06:21.253Z,47.57
2018-04-14T06:08:47.716Z,49.60
2018-04-14T06:11:14.891Z,45.57
2018-04-14T06:13:41.326Z,46.60
2018-04-14T06:16:08.482Z,51.00
2018-04-14T06:18:34.919Z,51.27
2018-04-14T06:21:01.362Z,59.77
2018-04-14T06:23:27.791Z,59.47
2018-04-14T06:25:54.223Z,59.27
2018-04-14T06:28:20.638Z,57.53
2018-04-14T06:30:47.785Z,67.93
2018-04-14T06:33:14.247Z,71.27
2018-04-14T06:35:40.698Z,71.40
2018-04-14T06:38:07.145Z,74.40
2018-04-14T06:40:33.564Z,71.47
2018-04-14T06:42:59.984Z,75.80
2018-04-14T06:45:26.422Z,85.37
2018-04-14T06:47:52.836Z,74.13
2018-04-14T06:50:19.254Z,78.67
2018-04-14T06:52:45.662Z,78.53
2018-04-14T06:55:12.079Z,77.97
2018-04-14T06:57:38.491Z,77.43
2018-04-14T07:00:04.916Z,82.27
2018-04-14T07:02:31.355Z,91.07
2018-04-14T07:04:57.809Z,94.97
2018-04-14T07:07:24.218Z,103.43
2018-04-14T07:09:50.645Z,92.27
2018-04-14T07:12:17.058Z,93.37
2018-04-14T07:14:44.229Z,105.70
2018-04-14T07:17:10.636Z,98.87
2018-04-14T07:19:37.823Z,90.53
2018-04-14T07:22:04.268Z,90.20
2018-04-14T07:24:30.718Z,102.30
2018-04-14T07:26:57.134Z,96.57
2018-04-14T07:29:23.554Z,91.60
2018-04-14T07:31:49.980Z,90.97
2018-04-14T07:34:16.447Z,75.47
2018-04-14T07:36:42.876Z,88.50
2018-04-14T07:39:09.324Z,82.50
2018-04-14T07:41:35.756Z,79.70
2018-04-14T07:44:02.194Z,81.13
2018-04-14T07:46:28.604Z,73.10
2018-04-14T07:48:55.022Z,72.60
2018-04-14T07:51:21.468Z,67.97
2018-04-14T07:53:47.887Z,71.60
2018-04-14T07:56:14.334Z,69.97
2018-04-14T07:58:40.772Z,73.87
2018-04-14T08:01:07.210Z,75.63
2018-04-14T08:03:33.686Z,70.53
2018-04-14T08:06:00.118Z,75.40
2018-04-14T08:08:27.281Z,67.13
2018-04-14T08:10:54.440Z,73.37
2018-04-14T08:13:20.988Z,73.20
2018-04-14T08:15:47.426Z,66.10
2018-04-14T08:18:13.858Z,68.80
2018-04-14T08:20:40.315Z,70.00
2018-04-14T08:23:06.734Z,72.57
2018-04-14T08:25:33.198Z,65.43
2018-04-14T08:27:59.705Z,72.27
2018-04-14T08:30:26.130Z,67.90
2018-04-14T08:32:52.581Z,71.87
2018-04-14T08:35:19.005Z,79.20
2018-04-14T08:37:45.465Z,70.93
2018-04-14T08:40:11.899Z,72.50
2018-04-14T08:42:38.358Z,75.80
2018-04-14T08:45:06.221Z,79.30
2018-04-14T08:47:32.660Z,75.20
2018-04-14T08:49:59.850Z,68.13
2018-04-14T08:52:26.313Z,73.27
2018-04-14T08:54:52.773Z,64.90
2018-04-14T08:57:19.826Z,72.20
2018-04-14T08:59:47.027Z,71.53
2018-04-14T09:02:13.482Z,70.50
2018-04-14T09:04:39.904Z,73.33
2018-04-14T09:07:06.336Z,70.60
2018-04-14T09:09:32.760Z,67.60
2018-04-14T09:11:59.188Z,77.10
2018-04-14T09:14:25.636Z,75.33
2018-04-14T09:16:52.064Z,69.83
2018-04-14T09:19:18.508Z,79.17
2018-04-14T09:21:44.931Z,71.73
2018-04-14T09:24:11.368Z,71.57
2018-04-14T09:26:37.792Z,67.43
2018-04-14T09:29:04.198Z,69.10
2018-04-14T09:31:31.422Z,72.83
2018-04-14T09:33:57.834Z,69.80
2018-04-14T09:36:24.277Z,75.27
2018-04-14T09:38:50.710Z,67.63
2018-04-14T09:41:17.132Z,76.10
2018-04-14T09:43:43.574Z,78.83
2018-04-14T09:46:10.010Z,74.67
2018-04-14T09:48:36.447Z,78.10
2018-04-14T09:51:02.880Z,70.23
2018-04-14T09:53:29.306Z,73.33
2018-04-14T09:55:55.723Z,74.07
2018-04-14T09:58:22.149Z,74.87
2018-04-14T10:00:54.496Z,68.57
2018-04-14T10:03:22.764Z,69.80
2018-04-14T10:05:49.935Z,69.77
2018-04-14T10:08:16.360Z,71.37
2018-04-14T10:10:42.784Z,71.33
2018-04-14T10:13:09.202Z,67.90
2018-04-14T10:15:36.379Z,63.97
2018-04-14T10:18:02.827Z,60.07
2018-04-14T10:20:29.257Z,59.93
2018-04-14T10:22:55.669Z,66.30
2018-04-14T10:25:22.847Z,63.67
2018-04-14T10:27:49.301Z,62.10
2018-04-14T10:30:15.773Z,65.63
2018-04-14T10:32:42.944Z,60.70
2018-04-14T10:35:09.381Z,63.30
2018-04-14T10:37:35.821Z,58.57
2018-04-14T10:40:02.233Z,61.90
2018-04-14T10:42:28.638Z,60.20
2018-04-14T10:44:56.153Z,65.90
2018-04-14T10:47:22.585Z,57.53
2018-04-14T10:49:48.995Z,58.73
2018-04-14T10:52:15.440Z,61.43
2018-04-14T10:54:41.855Z,58.20
2018-04-14T10:57:09.037Z,60.73
2018-04-14T10:59:35.463Z,62.27
2018-04-14T11:02:01.872Z,53.87
2018-04-14T11:04:29.055Z,54.20
2018-04-14T11:06:55.497Z,51.00
2018-04-14T11:09:21.913Z,56.10
2018-04-14T11:11:48.339Z,62.20
2018-04-14T11:14:14.773Z,58.10
2018-04-14T11:16:41.238Z,56.20
2018-04-14T11:19:07.667Z,58.90
2018-04-14T11:21:34.178Z,58.30
2018-04-14T11:24:00.596Z,54.63
2018-04-14T11:26:27.751Z,54.10
2018-04-14T11:28:54.929Z,55.23
2018-04-14T11:31:21.403Z,56.47
2018-04-14T11:33:47.804Z,52.30
2018-04-14T11:36:14.236Z,58.93
2018-04-14T11:38:40.651Z,54.50
2018-04-14T11:41:07.083Z,52.80
2018-04-14T11:43:33.481Z,55.10
2018-04-14T11:45:59.919Z,55.63
2018-04-14T11:48:27.053Z,46.73
2018-04-14T11:50:53.573Z,50.53
2018-04-14T11:53:19.967Z,51.57
2018-04-14T11:55:46.383Z,49.33
2018-04-14T11:58:12.799Z,51.97
2018-04-14T12:00:39.257Z,51.93
2018-04-14T12:03:06.405Z,49.03
2018-04-14T12:05:33.576Z,48.23
2018-04-14T12:07:59.997Z,45.33
2018-04-14T12:10:26.418Z,47.63
2018-04-14T12:12:52.852Z,46.90
2018-04-14T12:15:20.029Z,49.17
2018-04-14T12:17:46.464Z,49.90
2018-04-14T12:20:12.892Z,48.43
2018-04-14T12:22:39.366Z,48.43
2018-04-14T12:25:05.810Z,48.40
2018-04-14T12:27:32.231Z,44.60
2018-04-14T12:29:58.655Z,45.63
2018-04-14T12:32:25.076Z,42.87
2018-04-14T12:34:51.485Z,45.53
2018-04-14T12:37:17.915Z,46.00
2018-04-14T12:39:45.059Z,44.40
2018-04-14T12:42:12.240Z,45.23
2018-04-14T12:44:38.680Z,47.17
2018-04-14T12:47:05.116Z,42.47
2018-04-14T12:49:31.537Z,42.83
2018-04-14T12:51:57.946Z,47.47
2018-04-14T12:54:24.370Z,47.53
2018-04-14T12:56:51.550Z,50.10
2018-04-14T12:59:17.989Z,47.27
2018-04-14T13:01:44.438Z,46.03
2018-04-14T13:04:10.856Z,48.43
2018-04-14T13:06:37.262Z,47.10
2018-04-14T13:09:04.504Z,47.60
2018-04-14T13:11:30.934Z,42.27
2018-04-14T13:13:59.587Z,48.70
2018-04-14T13:16:26.001Z,45.43
2018-04-14T13:18:52.448Z,46.90
2018-04-14T13:21:19.489Z,45.77
2018-04-14T13:23:45.912Z,45.10
2018-04-14T13:26:12.346Z,44.33
2018-04-14T13:28:38.767Z,41.83
2018-04-14T13:31:05.202Z,42.30
2018-04-14T13:33:31.638Z,44.03
2018-04-14T13:35:58.081Z,46.10
2018-04-14T13:38:24.523Z,42.43
2018-04-14T13:40:50.943Z,40.77
2018-04-14T13:43:17.352Z,42.07
2018-04-14T13:45:43.781Z,42.60
2018-04-14T13:48:10.933Z,40.90
2018-04-14T13:50:37.340Z,40.87
2018-04-14T13:53:03.761Z,41.13
2018-04-14T13:55:30.183Z,36.53
2018-04-14T13:57:56.604Z,37.70
2018-04-14T14:00:23.020Z,35.70
2018-04-14T14:02:49.444Z,37.63
2018-04-14T14:05:15.872Z,37.20
2018-04-14T14:07:42.286Z,38.47
2018-04-14T14:10:09.448Z,39.33
2018-04-14T14:12:35.886Z,36.87
2018-04-14T14:15:03.091Z,39.80
2018-04-14T14:17:29.514Z,33.40
2018-04-14T14:19:55.934Z,36.67
2018-04-14T14:22:22.359Z,38.47
2018-04-14T14:24:48.789Z,32.03
2018-04-14T14:27:15.208Z,31.00
2018-04-14T14:29:41.624Z,34.07
2018-04-14T14:32:08.777Z,34.33
2018-04-14T14:34:35.946Z,33.47
2018-04-14T14:37:02.378Z,28.70
2018-04-14T14:39:28.810Z,31.03
2018-04-14T14:41:55.246Z,34.03
2018-04-14T14:44:21.671Z,32.60
2018-04-14T14:46:48.103Z,35.07
2018-04-14T14:49:16.378Z,33.60
2018-04-14T14:51:42.903Z,31.80
2018-04-14T14:54:10.058Z,36.53
2018-04-14T14:56:37.208Z,35.07
2018-04-14T14:59:04.389Z,31.63
2018-04-14T15:01:30.853Z,30.70
2018-04-14T15:03:57.289Z,32.97
2018-04-14T15:06:23.722Z,37.93
2018-04-14T15:08:50.139Z,33.37
2018-04-14T15:11:16.563Z,31.80
2018-04-14T15:13:43.009Z,31.50
2018-04-14T15:16:09.429Z,31.27
2018-04-14T15:18:35.873Z,26.97
2018-04-14T15:21:02.294Z,29.97
2018-04-14T15:23:28.713Z,28.87
2018-04-14T15:25:55.150Z,32.63
2018-04-14T15:28:21.570Z,31.37
2018-04-14T15:30:48.718Z,30.03
2018-04-14T15:33:15.876Z,30.77
2018-04-14T15:35:42.310Z,28.93
2018-04-14T15:38:08.735Z,29.43
2018-04-14T15:40:35.165Z,30.60
2018-04-14T15:43:02.351Z,31.03
2018-04-14T15:45:28.785Z,31.43
2018-04-14T15:47:56.411Z,31.30
2018-04-14T15:50:22.833Z,30.27
2018-04-14T15:52:50.016Z,33.07
2018-04-14T15:55:16.435Z,33.00
2018-04-14T15:57:44.095Z,31.57
2018-04-14T16:00:11.316Z,29.60
2018-04-14T16:02:37.738Z,32.07
2018-04-14T16:05:04.168Z,30.57
2018-04-14T16:07:30.600Z,35.50
2018-04-14T16:09:57.037Z,33.77
2018-04-14T16:12:23.457Z,34.10
2018-04-14T16:14:49.904Z,35.23
2018-04-14T16:17:16.323Z,36.17
2018-04-14T16:19:42.735Z,38.63
2018-04-14T16:22:10.446Z,40.20
2018-04-14T16:24:36.868Z,40.77
2018-04-14T16:27:03.347Z,48.30
2018-04-14T16:29:30.550Z,39.57
2018-04-14T16:31:56.970Z,40.17
2018-04-14T16:34:23.397Z,38.93
2018-04-14T16:36:49.826Z,41.47
2018-04-14T16:39:16.251Z,41.73
2018-04-14T16:41:42.686Z,46.37
2018-04-14T16:44:09.106Z,46.20
2018-04-14T16:46:35.556Z,44.57
2018-04-14T16:49:02.008Z,48.10
2018-04-14T16:51:28.426Z,45.90
2018-04-14T16:53:54.859Z,42.17
2018-04-14T16:56:21.277Z,44.80
2018-04-14T16:58:47.753Z,48.63
2018-04-14T17:01:14.190Z,44.13
2018-04-14T17:03:40.620Z,48.17
2018-04-14T17:06:07.045Z,44.40
2018-04-14T17:08:33.473Z,44.37
2018-04-14T17:10:59.891Z,49.47
2018-04-14T17:13:26.341Z,42.80
2018-04-14T17:15:52.752Z,45.70
2018-04-14T17:18:19.167Z,48.57
2018-04-14T17:20:45.599Z,45.77
2018-04-14T17:23:12.760Z,48.50
2018-04-14T17:25:39.181Z,43.40
2018-04-14T17:28:06.334Z,46.33
2018-04-14T17:30:32.753Z,47.37
2018-04-14T17:32:59.234Z,46.97
2018-04-14T17:35:25.666Z,47.43
2018-04-14T17:37:52.095Z,48.03
2018-04-14T17:40:18.499Z,51.70
2018-04-14T17:42:45.652Z,46.80
2018-04-14T17:45:12.813Z,49.00
2018-04-14T17:47:39.257Z,51.37
2018-04-14T17:50:05.693Z,48.63
2018-04-14T17:52:32.114Z,48.20
2018-04-14T17:54:58.547Z,45.57
2018-04-14T17:57:24.967Z,49.47
2018-04-14T17:59:51.997Z,49.30
2018-04-14T18:02:18.447Z,51.77
2018-04-14T18:04:44.855Z,56.83
2018-04-14T18:07:11.281Z,54.70
2018-04-14T18:09:37.711Z,61.43
2018-04-14T18:12:04.146Z,66.63
2018-04-14T18:14:30.566Z,75.30
2018-04-14T18:16:57.995Z,75.50
2018-04-14T18:19:24.417Z,84.23
2018-04-14T18:21:50.873Z,74.70
2018-04-14T18:24:17.304Z,78.93
2018-04-14T18:26:43.738Z,81.00
2018-04-14T18:29:10.169Z,81.33
2018-04-14T18:31:36.574Z,83.93
2018-04-14T18:34:03.759Z,79.80
2018-04-14T18:36:30.206Z,65.10
2018-04-14T18:38:56.647Z,74.27
2018-04-14T18:41:23.071Z,105.93
2018-04-14T18:43:49.500Z,120.37
2018-04-14T18:46:15.952Z,163.53
2018-04-14T18:48:42.389Z,192.87
2018-04-14T18:51:08.808Z,172.53
2018-04-14T18:53:35.254Z,344.73
2018-04-14T18:56:02.448Z,196.67
2018-04-14T18:58:28.908Z,198.93
2018-04-14T19:00:55.337Z,184.30
2018-04-14T19:03:21.770Z,257.23
2018-04-14T19:05:48.213Z,255.13
2018-04-14T19:08:14.604Z,307.20
2018-04-14T19:10:41.027Z,337.20
2018-04-14T19:13:07.435Z,158.57
2018-04-14T19:15:33.863Z,146.87
2018-04-14T19:18:00.338Z,111.43
2018-04-14T19:20:26.744Z,104.17
2018-04-14T19:22:53.168Z,110.60
2018-04-14T19:25:19.585Z,154.10
2018-04-14T19:27:46.043Z,138.47
2018-04-14T19:30:12.528Z,140.27
2018-04-14T19:32:38.961Z,137.50
2018-04-14T19:35:05.413Z,180.93
2018-04-14T19:37:31.851Z,192.07
2018-04-14T19:39:58.295Z,103.10
2018-04-14T19:42:24.715Z,117.93
2018-04-14T19:44:51.152Z,158.20
2018-04-14T19:47:19.046Z,171.73
2018-04-14T19:49:52.336Z,207.17
2018-04-14T19:52:18.788Z,130.70
2018-04-14T19:54:46.708Z,172.30
2018-04-14T19:57:13.118Z,192.57
2018-04-14T19:59:40.265Z,172.43
2018-04-14T20:02:07.439Z,174.47
2018-04-14T20:04:33.857Z,150.50
2018-04-14T20:07:00.379Z,203.53
2018-04-14T20:09:26.807Z,127.10
2018-04-14T20:11:53.964Z,101.93
2018-04-14T20:14:20.384Z,150.50
2018-04-14T20:16:46.827Z,119.80
2018-04-14T20:19:13.266Z,131.60
2018-04-14T20:21:40.046Z,134.83
2018-04-14T20:24:06.485Z,116.53
2018-04-14T20:26:32.915Z,167.53
2018-04-14T20:28:59.352Z,154.50
2018-04-14T20:31:25.952Z,199.43
2018-04-14T20:33:53.184Z,122.50
2018-04-14T20:36:21.108Z,146.10
2018-04-14T20:38:47.562Z,182.40
2018-04-14T20:41:14.161Z,130.37
2018-04-14T20:43:40.585Z,219.93
2018-04-14T20:46:07.037Z,158.30
2018-04-14T20:48:33.455Z,124.47
2018-04-14T20:50:59.862Z,140.43
2018-04-14T20:53:27.052Z,154.83
2018-04-14T20:55:53.511Z,136.73
2018-04-14T20:58:19.955Z,130.53
2018-04-14T21:00:46.390Z,156.53
2018-04-14T21:03:12.819Z,145.57
2018-04-14T21:05:39.256Z,213.70
2018-04-14T21:08:05.663Z,203.37
2018-04-14T21:10:32.099Z,199.57
2018-04-14T21:12:58.522Z,161.30
2018-04-14T21:15:24.963Z,138.87
2018-04-14T21:17:51.387Z,132.93
2018-04-14T21:20:17.803Z,184.27
2018-04-14T21:22:45.053Z,188.40
2018-04-14T21:25:11.497Z,139.23
2018-04-14T21:27:37.948Z,119.33
2018-04-14T21:30:04.397Z,113.73
2018-04-14T21:32:30.837Z,145.80
2018-04-14T21:34:57.285Z,149.93
2018-04-14T21:37:23.739Z,123.57
2018-04-14T21:39:50.915Z,163.77
2018-04-14T21:42:17.334Z,162.77
2018-04-14T21:44:43.795Z,178.17
2018-04-14T21:47:10.271Z,159.23
2018-04-14T21:49:37.674Z,133.70
2018-04-14T21:52:04.142Z,205.37
2018-04-14T21:54:30.595Z,227.60
2018-04-14T21:56:57.027Z,188.53
2018-04-14T21:59:23.452Z,159.43
2018-04-14T22:01:49.904Z,180.43
2018-04-14T22:04:16.324Z,167.53
2018-04-14T22:06:42.779Z,186.53
2018-04-14T22:09:10.701Z,190.63
2018-04-14T22:11:44.191Z,179.23
2018-04-14T22:14:10.692Z,167.53
2018-04-14T22:16:37.875Z,151.30
2018-04-14T22:19:04.386Z,185.80
2018-04-14T22:21:30.805Z,159.80
2018-04-14T22:23:58.014Z,173.33
2018-04-14T22:26:24.469Z,156.47
2018-04-14T22:28:51.099Z,177.50
2018-04-14T22:31:17.558Z,177.47
2018-04-14T22:33:43.982Z,201.03
2018-04-14T22:36:10.465Z,230.83
2018-04-14T22:38:36.918Z,150.83
2018-04-14T22:41:03.348Z,192.17
2018-04-14T22:43:29.794Z,173.93
2018-04-14T22:45:56.232Z,216.60
2018-04-14T22:48:22.716Z,216.90
2018-04-14T22:50:49.151Z,163.20
2018-04-14T22:53:16.467Z,180.67
2018-04-14T22:55:42.893Z,156.80
2018-04-14T22:58:09.322Z,172.83
2018-04-14T23:00:35.797Z,171.30
2018-04-14T23:03:02.992Z,258.80
2018-04-14T23:05:29.458Z,236.80
2018-04-14T23:07:55.910Z,217.43
2018-04-14T23:10:22.378Z,311.33
2018-04-14T23:12:48.825Z,172.53
2018-04-14T23:15:15.270Z,170.70
2018-04-14T23:17:41.695Z,278.53
2018-04-14T23:20:08.139Z,232.60
2018-04-14T23:22:34.564Z,164.43
2018-04-14T23:25:02.570Z,145.97
2018-04-14T23:27:29.026Z,218.23
2018-04-14T23:29:56.228Z,153.50
2018-04-14T23:32:22.667Z,146.67
2018-04-14T23:34:49.108Z,137.37
2018-04-14T23:37:16.878Z,219.20
2018-04-14T23:39:43.307Z,158.60
2018-04-14T23:42:09.718Z,195.77
2018-04-14T23:44:36.158Z,188.87
2018-04-14T23:47:02.606Z,162.83
2018-04-14T23:49:29.195Z,153.77
2018-04-14T23:51:55.666Z,133.33
2018-04-14T23:54:22.123Z,224.70
2018-04-14T23:56:48.577Z,195.70
2018-04-14T23:59:14.993Z,254.50
